Latest Weather Observations for South Johnstone

IDQ60801

Issued at 11:32 am EST Saturday 28 February 2015 (issued every 30 minutes, with the page automatically refreshed every 10 minutes)

About weather observations | Map of weather stations | Latest weather observations for QLD | Other Formats
Station Details ID: 032037 Name: SOUTH JOHNSTONE EXP STN Lat: -17.61 Lon: 146.00 Height: 18.3 m
Data from the previous 72 hours. | See also: Recent months at South Johnstone
Date/Time
EST
Temp
°C
App
Temp
°C
Dew
Point
Rel
Hum
%
Delta-T
°C
Wind Press
QNH
hPa
Press
MSL
hPa
Rain
since 9 am
mm
Dir
 
Spd
km/h
Gust
km/h
Spd
kts
Gust
kts
28/11:30am 31.8 36.3 23.7 62 5.6 E 6 9 3 5 1007.9 - 0.0
28/11:00am 30.6 35.2 22.5 62 5.5 WNW 2 6 1 3 1008.1 - 0.0
28/10:30am 30.7 34.8 22.3 61 5.7 N 4 7 2 4 1008.2 - 0.0
28/10:00am 30.1 34.6 23.0 65 4.9 NNE 4 9 2 5 1008.4 - 0.0
28/09:30am 29.5 35.0 24.0 72 3.8 SSW 2 6 1 3 1008.7 - 0.0
28/09:00am 28.5 34.1 24.3 78 2.9 WNW 2 7 1 4 1008.5 1008.4 0.0
28/08:30am 27.1 32.0 24.4 85 1.9 SSW 6 9 3 5 1008.4 - 0.0
28/08:00am 25.9 30.4 23.7 88 1.5 W 6 11 3 6 1008.3 - 0.0
28/07:30am 24.7 29.3 23.2 91 1.0 WNW 4 7 2 4 1007.9 - 0.0
28/07:00am 23.8 28.3 22.9 95 0.6 W 4 7 2 4 1007.7 - 0.0
28/06:30am 23.0 27.6 22.4 96 0.4 W 2 7 1 4 1007.3 - 0.0
28/06:00am 23.1 27.8 22.7 98 0.3 W 2 7 1 4 1007.2 1007.1 0.0
28/05:30am 23.4 28.6 22.8 96 0.4 CALM 0 2 0 1 1006.9 - 0.0
28/05:00am 23.6 28.8 22.9 96 0.5 CALM 0 0 0 0 1006.6 - 0.0
28/04:30am 23.8 29.1 23.1 96 0.5 CALM 0 0 0 0 1006.5 - 0.0
28/04:00am 24.0 28.7 23.4 96 0.4 WNW 4 7 2 4 1006.3 - 0.0
28/03:30am 23.9 27.6 23.3 96 0.4 SW 9 13 5 7 1006.3 - 0.0
28/03:00am 24.1 29.3 23.5 96 0.4 WNW 2 7 1 4 1006.5 1006.4 0.0
28/02:30am 24.3 29.9 23.6 96 0.5 CALM 0 0 0 0 1006.9 - 0.0
28/02:00am 24.5 30.2 23.8 96 0.5 CALM 0 0 0 0 1007.2 - 0.0
28/01:30am 24.7 30.4 23.8 95 0.6 CALM 0 2 0 1 1007.3 - 0.0
28/01:00am 24.9 30.9 24.2 96 0.5 CALM 0 0 0 0 1007.7 - 0.0
28/12:30am 24.9 30.7 23.9 94 0.7 CALM 0 0 0 0 1008.2 - 0.0
28/12:00am 25.2 30.8 24.2 94 0.7 WNW 2 7 1 4 1008.5 1008.4 0.0
 
Date/Time
EST
Temp
°C
App
Temp
°C
Dew
Point
Rel
Hum
%
Delta-T
°C
Wind Press
QNH
hPa
Press
MSL
hPa
Rain
since 9 am
mm
Dir
 
Spd
km/h
Gust
km/h
Spd
kts
Gust
kts
27/11:30pm 25.3 31.1 24.0 92 0.9 CALM 0 6 0 3 1008.8 - 0.0
27/11:00pm 25.3 30.8 24.0 92 0.9 WNW 2 9 1 5 1009.0 - 0.0
27/10:30pm 25.4 29.9 23.9 91 1.0 WSW 7 13 4 7 1008.9 - 0.0
27/10:00pm 25.5 30.3 24.2 92 0.9 W 6 9 3 5 1008.4 - 0.0
27/09:30pm 25.8 31.3 24.1 90 1.2 WSW 2 9 1 5 1008.4 - 0.0
27/09:00pm 25.8 29.9 23.9 89 1.3 WSW 9 13 5 7 1008.3 1008.2 0.0
27/08:30pm 26.3 30.7 23.8 86 1.7 WSW 7 11 4 6 1008.0 - 0.0
27/08:00pm 26.5 32.3 23.9 85 1.8 CALM 0 4 0 2 1007.7 - 0.0
27/07:30pm 27.2 33.0 24.0 83 2.2 CALM 0 0 0 0 1007.5 - 0.0
27/07:00pm 27.2 33.2 24.2 84 2.1 CALM 0 0 0 0 1006.9 - 0.0
27/06:30pm 27.7 32.2 23.6 78 2.8 ENE 6 7 3 4 1006.5 - 0.0
27/06:00pm 28.3 32.4 23.2 74 3.5 NE 7 11 4 6 1005.9 1005.8 0.0
27/05:30pm 28.8 32.0 23.1 71 3.9 NE 11 17 6 9 1005.1 - 0.0
27/05:00pm 29.4 32.3 22.5 66 4.7 NE 11 24 6 13 1004.8 - 0.0
27/04:30pm 30.3 32.5 21.9 60 5.7 NE 13 22 7 12 1004.9 - 0.0
27/04:00pm 30.6 32.8 22.6 62 5.5 NE 15 24 8 13 1005.0 - 0.0
27/03:30pm 30.9 33.6 22.9 62 5.5 NE 13 20 7 11 1005.2 - 0.0
27/03:00pm 31.1 33.3 22.6 60 5.8 NE 15 20 8 11 1005.3 1005.2 0.0
27/02:30pm 31.4 33.3 22.0 57 6.4 ENE 15 24 8 13 1005.6 - 0.0
27/02:00pm 31.7 33.7 22.3 57 6.4 NE 15 24 8 13 1006.0 - 0.0
27/01:30pm 31.8 33.8 21.6 54 6.9 NE 13 19 7 10 1006.1 - 0.0
27/01:00pm 31.8 34.2 21.6 54 6.9 NE 11 20 6 11 1006.6 - 0.0
27/12:30pm 31.9 35.2 21.4 53 7.1 E 6 13 3 7 1007.3 - 0.0
27/12:00pm 31.8 34.9 21.4 54 7.0 SE 7 11 4 6 1007.7 1007.6 0.0
27/11:30am 31.7 36.3 21.7 55 6.8 CALM 0 2 0 1 1008.1 - 0.0
27/11:00am 31.4 36.8 23.3 62 5.6 CALM 0 6 0 3 1008.2 - 0.0
27/10:30am 30.3 34.9 22.4 62 5.4 NW 2 9 1 5 1008.2 - 0.0
27/10:00am 29.6 34.5 22.4 65 4.9 CALM 0 6 0 3 1008.4 - 0.0
27/09:30am 28.9 34.4 23.4 72 3.8 CALM 0 6 0 3 1008.5 - 0.0
27/09:00am 27.9 32.7 24.1 80 2.6 NW 6 7 3 4 1008.3 1008.2 0.0
27/08:30am 26.7 32.3 24.2 86 1.7 W 2 9 1 5 1008.4 - 0.0
27/08:00am 25.2 30.1 23.6 91 1.1 W 4 7 2 4 1008.2 - 0.0
27/07:30am 23.4 26.8 22.0 92 0.9 WSW 7 13 4 7 1008.1 - 0.0
27/07:00am 22.8 26.3 21.9 95 0.6 WNW 6 9 3 5 1008.0 - 0.0
27/06:30am 22.1 26.6 21.6 97 0.3 CALM 0 6 0 3 1007.8 - 0.0
27/06:00am 22.1 25.9 21.6 97 0.3 W 4 7 2 4 1007.5 1007.4 0.0
27/05:30am 22.2 26.3 21.6 96 0.4 WSW 2 9 1 5 1007.2 - 0.0
27/05:00am 22.2 25.0 21.6 96 0.4 WSW 9 11 5 6 1006.9 - 0.0
27/04:30am 22.2 24.6 21.6 96 0.4 WSW 11 13 6 7 1006.7 - 0.0
27/04:00am 22.2 26.0 21.7 97 0.3 W 4 7 2 4 1006.6 - 0.0
27/03:30am 22.6 26.2 22.0 96 0.4 W 6 9 3 5 1006.6 - 0.0
27/03:00am 22.7 26.7 22.1 96 0.4 W 4 6 2 3 1006.8 1006.7 0.0
27/02:30am 22.8 27.3 22.2 96 0.4 SW 2 9 1 5 1007.0 - 0.0
27/02:00am 22.9 26.6 22.3 96 0.4 WNW 6 9 3 5 1007.0 - 0.0
27/01:30am 23.0 26.6 22.4 96 0.4 WNW 7 9 4 5 1007.3 - 0.0
27/01:00am 23.1 28.1 22.5 96 0.4 CALM 0 6 0 3 1007.7 - 0.0
27/12:30am 23.3 27.3 22.7 96 0.4 W 6 9 3 5 1007.7 - 0.0
27/12:00am 23.5 28.3 22.8 96 0.5 WNW 2 6 1 3 1008.3 1008.2 0.0
 
Date/Time
EST
Temp
°C
App
Temp
°C
Dew
Point
Rel
Hum
%
Delta-T
°C
Wind Press
QNH
hPa
Press
MSL
hPa
Rain
since 9 am
mm
Dir
 
Spd
km/h
Gust
km/h
Spd
kts
Gust
kts
26/11:30pm 23.6 28.4 22.9 96 0.5 W 2 7 1 4 1008.7 - 0.0
26/11:00pm 23.9 27.8 23.0 95 0.6 W 7 13 4 7 1008.9 - 0.0
26/10:30pm 23.9 28.0 23.0 95 0.6 W 6 9 3 5 1008.8 - 0.0
26/10:00pm 24.1 27.8 23.2 95 0.6 WSW 9 13 5 7 1008.6 - 0.0
26/09:30pm 24.6 28.9 23.3 92 0.9 W 6 9 3 5 1008.2 - 0.0
26/09:00pm 24.8 30.2 23.3 91 1.0 CALM 0 0 0 0 1007.6 1007.5 0.0
26/08:30pm 25.4 29.5 23.3 88 1.4 WSW 7 9 4 5 1007.4 - 0.0
26/08:00pm 25.5 31.2 23.7 90 1.2 CALM 0 0 0 0 1007.1 - 0.0
26/07:30pm 26.1 31.8 23.8 87 1.6 CALM 0 0 0 0 1006.5 - 0.0
26/07:00pm 27.0 32.3 23.0 79 2.7 CALM 0 0 0 0 1006.3 - 0.0
26/06:30pm 28.0 31.8 22.7 73 3.6 E 7 11 4 6 1006.1 - 0.0
26/06:00pm 28.8 31.7 21.8 66 4.7 E 9 11 5 6 1005.9 1005.8 0.0
26/05:30pm 29.7 32.0 21.4 61 5.6 E 11 15 6 8 1005.4 - 0.0
26/05:00pm 30.0 32.0 21.5 60 5.7 E 13 19 7 10 1005.3 - 0.0
26/04:30pm 30.6 32.6 20.7 55 6.6 ESE 11 17 6 9 1005.3 - 0.0
26/04:00pm 31.0 33.2 21.9 58 6.2 ESE 13 20 7 11 1005.4 - 0.0
26/03:30pm 31.0 33.6 21.9 58 6.2 ESE 11 19 6 10 1005.4 - 0.0
26/03:00pm 31.0 33.2 21.2 56 6.6 SE 11 20 6 11 1005.5 1005.4 0.0
26/02:30pm 31.0 32.9 22.0 58 6.1 SE 15 19 8 10 1005.7 - 0.0
26/02:00pm 31.3 34.4 23.5 63 5.4 ESE 13 20 7 11 1006.0 - 0.0
26/01:30pm 31.0 32.5 21.3 56 6.5 SE 15 22 8 12 1006.6 - 0.0
26/01:00pm 31.1 32.9 21.8 57 6.3 SE 15 20 8 11 1007.1 - 0.0
26/12:30pm 31.2 33.6 22.2 58 6.1 SE 13 19 7 10 1007.5 - 0.0
26/12:00pm 31.1 33.5 22.3 59 6.0 SE 13 22 7 12 1008.1 1008.0 0.0
26/11:30am 30.8 33.9 22.9 62 5.4 S 11 19 6 10 1008.6 - 0.0
26/11:00am 30.5 34.0 22.8 63 5.3 ESE 9 19 5 10 1008.8 - 0.0
26/10:30am 29.3 34.9 23.5 71 4.0 CALM 0 6 0 3 1009.1 - 0.0
26/10:00am 29.0 33.1 23.9 74 3.5 SW 9 13 5 7 1009.2 - 0.0
26/09:30am 29.5 34.6 23.4 69 4.2 ESE 2 9 1 5 1009.1 - 0.0
26/09:00am 28.7 35.0 25.9 85 2.0 S 4 7 2 4 1009.2 1009.1 15.4
26/08:30am 26.3 32.6 24.7 91 1.1 CALM 0 0 0 0 1009.0 - 15.4
26/08:00am 25.3 30.4 24.1 93 0.8 WSW 4 9 2 5 1009.0 - 15.4
26/07:30am 23.8 28.9 23.4 98 0.3 NW 2 7 1 4 1008.6 - 15.4
26/07:00am 23.3 28.5 22.9 98 0.3 CALM 0 6 0 3 1008.4 - 15.4
26/06:30am 23.2 28.0 22.8 98 0.3 W 2 7 1 4 1008.3 - 15.4
26/06:00am 23.2 28.0 22.8 98 0.3 W 2 7 1 4 1008.1 1008.0 15.4
26/05:30am 23.2 27.6 22.8 98 0.3 W 4 6 2 3 1008.1 - 15.4
26/05:00am 23.0 27.3 22.7 98 0.2 W 4 9 2 5 1008.1 - 15.4
26/04:30am 23.0 28.1 22.7 98 0.2 CALM 0 0 0 0 1008.0 - 15.2
26/04:00am 23.0 28.1 22.7 98 0.2 CALM 0 2 0 1 1007.6 - 15.2
26/03:30am 23.0 28.1 22.6 98 0.3 CALM 0 0 0 0 1007.5 - 15.2
26/03:00am 23.1 27.1 22.8 98 0.2 WNW 6 7 3 4 1007.6 1007.5 15.2
26/02:30am 23.1 28.3 22.8 98 0.2 CALM 0 6 0 3 1007.7 - 15.2
26/02:00am 23.2 28.0 22.9 98 0.2 WNW 2 7 1 4 1007.8 - 15.2
26/01:30am 23.4 28.7 23.0 98 0.3 CALM 0 0 0 0 1007.6 - 15.2
26/01:00am 23.4 28.7 23.1 98 0.2 CALM 0 0 0 0 1007.7 - 15.2
26/12:30am 23.6 29.0 23.3 98 0.2 CALM 0 6 0 3 1007.8 - 15.2
26/12:00am 23.7 29.2 23.4 98 0.2 CALM 0 6 0 3 1008.3 1008.2 15.2
 
Date/Time
EST
Temp
°C
App
Temp
°C
Dew
Point
Rel
Hum
%
Delta-T
°C
Wind Press
QNH
hPa
Press
MSL
hPa
Rain
since 9 am
mm
Dir
 
Spd
km/h
Gust
km/h
Spd
kts
Gust
kts
25/11:30pm 23.9 29.5 23.5 98 0.3 CALM 0 0 0 0 1008.6 - 15.2
25/11:00pm 23.9 28.7 23.5 98 0.3 W 4 7 2 4 1008.7 - 15.2
25/10:30pm 23.9 29.3 23.3 96 0.4 CALM 0 6 0 3 1008.6 - 15.2
25/10:00pm 24.0 29.6 23.6 98 0.3 CALM 0 6 0 3 1008.8 - 15.2
25/09:30pm 24.0 29.2 23.6 98 0.3 WNW 2 7 1 4 1008.5 - 15.2
25/09:00pm 24.3 29.6 23.7 96 0.4 W 2 7 1 4 1008.3 1008.2 15.2
25/08:30pm 24.3 30.1 23.9 98 0.3 CALM 0 6 0 3 1007.9 - 15.2
25/08:00pm 24.3 29.2 23.7 96 0.4 WSW 4 9 2 5 1007.7 - 15.2
25/07:30pm 24.5 29.2 23.9 96 0.4 WSW 6 9 3 5 1007.5 - 15.2
25/07:00pm 24.5 29.9 23.8 96 0.5 W 2 7 1 4 1007.2 - 15.2
25/06:30pm 25.0 29.7 24.0 94 0.7 WSW 6 7 3 4 1007.1 - 15.2
25/06:00pm 25.2 29.7 23.9 92 0.9 WSW 7 13 4 7 1007.0 1006.9 15.2
25/05:30pm 25.1 29.9 24.2 95 0.6 W 6 11 3 6 1006.7 - 15.2
25/05:00pm 25.1 30.0 24.4 96 0.5 W 6 15 3 8 1006.7 - 15.2
25/04:30pm 24.5 29.2 23.9 96 0.4 W 6 11 3 6 1006.7 - 15.2
25/04:00pm 24.4 28.4 23.8 96 0.4 WSW 9 13 5 7 1006.6 - 14.8
25/03:30pm 24.5 28.6 23.3 93 0.8 SW 7 13 4 7 1007.1 - 13.0
25/03:00pm 25.0 29.5 23.7 92 0.9 ENE 6 9 3 5 1007.4 1007.3 10.4
25/02:30pm 26.1 28.4 23.5 85 1.8 ENE 17 30 9 16 1007.3 - 8.0
25/02:00pm 28.2 35.2 25.9 87 1.6 CALM 0 6 0 3 1007.5 - 8.0
25/01:30pm 28.0 35.1 26.0 89 1.4 CALM 0 9 0 5 1007.7 - 8.0
25/01:00pm 27.6 34.4 25.5 88 1.5 CALM 0 0 0 0 1008.3 - 8.0
25/12:30pm 25.7 30.1 24.4 92 0.9 WSW 9 11 5 6 1008.4 - 8.0
25/12:00pm 24.9 30.6 23.7 93 0.8 CALM 0 6 0 3 1008.7 1008.6 4.2

Other Formats:

Comma delimited format used in spreadsheet applications
http://www.bom.gov.au/fwo/IDQ60801/IDQ60801.95292.axf

JavaScript Object Notation format (JSON) in row-major order
http://www.bom.gov.au/fwo/IDQ60801/IDQ60801.95292.json